Time;durP1;ratioP1;P1;durP2;ratioP2;P2;SDS_P1;SDS_P2;PMS_P1;PMS_P2;Temp;Humidity;BMP_temperature;BMP_pressure;BME280_temperature;BME280_humidity;BME280_pressure;Samples;Min_cycle;Max_cycle;Signal;HPM_P1;HPM_P2
2021/12/09 00:02:05;;;;;;;22.17;9.52;;;6.20;99.90;;;;;;5044957;28;20505;-72
2021/12/09 00:04:31;;;;;;;22.60;9.27;;;6.20;99.90;;;;;;5059560;28;20413;-71
2021/12/09 00:07:00;;;;;;;19.88;9.23;;;6.20;99.90;;;;;;5065815;28;20419;-71
2021/12/09 00:09:25;;;;;;;19.80;8.88;;;6.20;99.90;;;;;;5067396;28;20402;-72
2021/12/09 00:11:51;;;;;;;22.67;9.50;;;6.30;99.90;;;;;;5043430;28;20493;-72
2021/12/09 00:14:21;;;;;;;22.80;9.27;;;6.30;99.90;;;;;;5046840;28;20536;-72
2021/12/09 00:16:48;;;;;;;22.10;9.73;;;6.30;99.90;;;;;;5064778;28;20502;-72
2021/12/09 00:19:15;;;;;;;20.50;9.23;;;6.20;99.90;;;;;;5050675;28;20912;-73
2021/12/09 00:21:41;;;;;;;19.63;9.63;;;6.20;99.90;;;;;;5062052;28;20936;-72
2021/12/09 00:24:07;;;;;;;22.60;9.80;;;6.20;99.90;;;;;;5051612;28;20407;-71
2021/12/09 00:26:33;;;;;;;22.23;9.77;;;6.20;99.90;;;;;;5065014;28;20489;-72
2021/12/09 00:28:59;;;;;;;19.42;9.35;;;6.20;99.90;;;;;;5046823;28;20898;-73
2021/12/09 00:31:25;;;;;;;23.67;9.53;;;6.20;99.90;;;;;;5048530;28;20399;-71
2021/12/09 00:33:51;;;;;;;20.58;9.75;;;6.20;99.90;;;;;;5066559;28;21057;-72
2021/12/09 00:36:26;;;;;;;21.70;9.90;;;6.20;99.90;;;;;;5078291;28;20415;-73
2021/12/09 00:38:58;;;;;;;22.73;10.20;;;6.10;99.90;;;;;;5065072;28;20502;-71
2021/12/09 00:41:24;;;;;;;22.70;10.40;;;6.10;99.90;;;;;;5068511;28;20447;-73
2021/12/09 00:43:50;;;;;;;23.63;10.35;;;6.00;99.90;;;;;;5069128;28;20788;-71
2021/12/09 00:46:16;;;;;;;26.42;10.68;;;6.00;99.90;;;;;;5073614;28;20410;-73
2021/12/09 00:48:42;;;;;;;24.98;10.82;;;6.00;99.90;;;;;;5112933;27;20405;-73
2021/12/09 00:51:09;;;;;;;29.30;10.57;;;6.00;99.90;;;;;;5074514;28;20738;-71
2021/12/09 00:53:35;;;;;;;27.90;10.73;;;5.90;99.90;;;;;;5066980;28;20426;-71
2021/12/09 00:56:03;;;;;;;25.23;11.43;;;5.80;99.90;;;;;;5075487;28;20403;-73
2021/12/09 00:58:28;;;;;;;27.58;11.40;;;5.80;99.90;;;;;;5066277;28;20981;-72
2021/12/09 01:00:55;;;;;;;24.67;10.98;;;5.80;99.90;;;;;;5071950;28;20516;-72
2021/12/09 01:03:20;;;;;;;29.23;11.27;;;5.70;99.90;;;;;;5066752;28;20407;-73
2021/12/09 01:05:47;;;;;;;24.17;11.07;;;5.70;99.90;;;;;;5067818;28;20903;-72
2021/12/09 01:08:13;;;;;;;25.45;11.35;;;5.70;99.90;;;;;;5065594;28;20411;-72
2021/12/09 01:10:39;;;;;;;24.83;11.35;;;5.70;99.90;;;;;;5068531;28;20806;-71
2021/12/09 01:13:05;;;;;;;30.08;11.73;;;5.60;99.90;;;;;;5065789;28;20446;-71
2021/12/09 01:15:31;;;;;;;30.05;11.30;;;5.60;99.90;;;;;;5066913;28;20403;-71
2021/12/09 01:17:57;;;;;;;26.90;11.30;;;5.60;99.90;;;;;;5068277;28;20423;-72
2021/12/09 01:20:25;;;;;;;30.92;11.73;;;5.60;99.90;;;;;;5065846;28;20437;-71
2021/12/09 01:22:56;;;;;;;32.13;11.73;;;5.60;99.90;;;;;;5066834;28;20804;-72
2021/12/09 01:25:24;;;;;;;26.45;11.20;;;5.60;99.90;;;;;;5066458;28;20907;-71
2021/12/09 01:27:53;;;;;;;27.48;11.88;;;5.60;99.90;;;;;;5072729;28;20968;-72
2021/12/09 01:30:20;;;;;;;30.95;11.50;;;5.50;99.90;;;;;;5066320;28;20418;-71
2021/12/09 01:32:51;;;;;;;24.77;11.30;;;5.60;99.90;;;;;;5065600;28;20403;-71
2021/12/09 01:35:20;;;;;;;28.30;11.20;;;5.50;99.90;;;;;;5067302;28;20804;-72
2021/12/09 01:37:47;;;;;;;31.05;11.65;;;5.50;99.90;;;;;;5066924;28;20787;-71
2021/12/09 01:40:14;;;;;;;24.50;10.93;;;5.50;99.90;;;;;;5066692;28;21082;-71
2021/12/09 01:42:39;;;;;;;28.67;11.43;;;5.50;99.90;;;;;;5065611;28;20435;-71
2021/12/09 01:45:06;;;;;;;31.58;11.50;;;5.50;99.90;;;;;;5068106;28;20480;-71
2021/12/09 01:47:31;;;;;;;29.40;11.50;;;5.50;99.90;;;;;;5065916;28;20430;-71
2021/12/09 01:49:58;;;;;;;29.05;11.32;;;5.50;99.90;;;;;;5070625;28;20415;-71
2021/12/09 01:52:25;;;;;;;28.07;11.20;;;5.50;99.90;;;;;;5070489;28;20498;-72
2021/12/09 01:54:51;;;;;;;34.50;11.52;;;5.40;99.90;;;;;;5068998;28;20799;-71
2021/12/09 01:57:18;;;;;;;27.02;11.40;;;5.50;99.90;;;;;;5065415;28;20510;-71
2021/12/09 01:59:44;;;;;;;26.33;11.63;;;5.50;99.90;;;;;;5069935;28;21139;-71
2021/12/09 02:02:10;;;;;;;28.98;11.18;;;5.40;99.90;;;;;;5067741;28;20423;-73
2021/12/09 02:04:35;;;;;;;29.87;11.37;;;5.40;99.90;;;;;;5066235;28;20510;-71
2021/12/09 02:07:01;;;;;;;25.55;11.98;;;5.40;99.90;;;;;;5066210;28;20777;-71
2021/12/09 02:09:27;;;;;;;28.00;11.40;;;5.40;99.90;;;;;;5066330;28;20411;-72
2021/12/09 02:11:52;;;;;;;30.92;11.25;;;5.40;99.90;;;;;;5072070;28;20943;-72
2021/12/09 02:14:18;;;;;;;32.43;12.03;;;5.40;99.90;;;;;;5076831;28;20414;-71
2021/12/09 02:16:44;;;;;;;28.88;11.80;;;5.40;99.90;;;;;;5065031;28;20427;-72
2021/12/09 02:19:12;;;;;;;25.43;11.77;;;5.40;99.90;;;;;;5071756;28;20438;-71
2021/12/09 02:21:37;;;;;;;29.98;12.07;;;5.30;99.90;;;;;;5068286;28;20901;-71
2021/12/09 02:24:08;;;;;;;25.02;11.52;;;5.40;99.90;;;;;;5065968;28;20418;-72
2021/12/09 02:26:40;;;;;;;27.25;11.98;;;5.30;99.90;;;;;;5073428;28;20455;-70
2021/12/09 02:29:08;;;;;;;30.10;12.25;;;5.30;99.90;;;;;;5065557;28;20918;-71
2021/12/09 02:31:34;;;;;;;31.02;12.50;;;5.30;99.90;;;;;;5075750;28;20421;-71
2021/12/09 02:34:01;;;;;;;31.15;12.10;;;5.30;99.90;;;;;;5072423;28;20473;-72
2021/12/09 02:36:30;;;;;;;29.98;12.35;;;5.30;99.90;;;;;;5065701;28;20498;-71
2021/12/09 02:38:56;;;;;;;33.92;12.82;;;5.30;99.90;;;;;;5068605;28;20419;-72
2021/12/09 02:41:24;;;;;;;35.08;12.40;;;5.30;99.90;;;;;;5064677;28;20759;-71
2021/12/09 02:43:57;;;;;;;29.53;12.37;;;5.30;99.90;;;;;;5065721;28;20756;-71
2021/12/09 02:46:24;;;;;;;30.88;11.98;;;5.30;99.90;;;;;;5064733;28;20411;-72
2021/12/09 02:48:50;;;;;;;32.60;12.88;;;5.30;99.90;;;;;;5068251;28;20749;-72
2021/12/09 02:51:16;;;;;;;29.55;12.43;;;5.30;99.90;;;;;;5065985;28;20469;-71
2021/12/09 02:53:42;;;;;;;31.65;12.38;;;5.30;99.90;;;;;;5072866;28;20399;-72
2021/12/09 02:56:08;;;;;;;31.00;12.30;;;5.20;99.90;;;;;;5067030;28;20426;-71
2021/12/09 02:58:34;;;;;;;28.02;12.15;;;5.20;99.90;;;;;;5063163;28;20413;-72
2021/12/09 03:01:03;;;;;;;26.40;11.23;;;5.20;99.90;;;;;;5067646;28;21022;-72
2021/12/09 03:03:28;;;;;;;28.08;11.80;;;5.20;99.90;;;;;;5081811;28;20447;-73
2021/12/09 03:05:56;;;;;;;30.20;11.83;;;5.20;99.90;;;;;;5064410;28;21342;-71
2021/12/09 03:08:33;;;;;;;31.38;12.10;;;5.20;99.90;;;;;;5068702;28;20498;-72
2021/12/09 03:11:08;;;;;;;31.30;12.30;;;5.20;99.90;;;;;;5073683;28;20414;-73
2021/12/09 03:13:35;;;;;;;28.98;11.73;;;5.20;99.90;;;;;;5069091;28;20419;-72
2021/12/09 03:16:02;;;;;;;29.05;11.48;;;5.20;99.90;;;;;;5080159;28;20894;-71
2021/12/09 03:18:28;;;;;;;30.55;11.73;;;5.30;99.90;;;;;;5069311;28;20527;-72
2021/12/09 03:20:54;;;;;;;31.33;11.68;;;5.30;99.90;;;;;;5083352;28;20415;-71
2021/12/09 03:23:20;;;;;;;29.58;11.10;;;5.30;99.90;;;;;;5068450;28;20741;-73
2021/12/09 03:25:45;;;;;;;27.70;11.00;;;5.30;99.90;;;;;;5069916;28;20429;-71
2021/12/09 03:28:12;;;;;;;26.60;10.98;;;5.30;99.90;;;;;;5074092;28;20463;-74
2021/12/09 03:30:38;;;;;;;30.05;11.80;;;5.30;99.90;;;;;;5066296;28;20397;-72
2021/12/09 03:33:04;;;;;;;24.23;10.90;;;5.30;99.90;;;;;;5069093;28;20453;-73
2021/12/09 03:35:29;;;;;;;26.83;11.27;;;5.40;99.90;;;;;;5071632;28;20435;-72
2021/12/09 03:37:55;;;;;;;28.45;11.07;;;5.40;99.90;;;;;;5067675;28;20407;-71
2021/12/09 03:40:21;;;;;;;25.27;11.87;;;5.40;99.90;;;;;;5069950;28;20418;-71
2021/12/09 03:42:47;;;;;;;25.88;11.43;;;5.40;99.90;;;;;;5065291;28;20601;-72
2021/12/09 03:45:14;;;;;;;28.95;11.32;;;5.30;99.90;;;;;;5070281;28;20399;-72
2021/12/09 03:47:40;;;;;;;27.48;11.85;;;5.30;99.90;;;;;;5031707;28;20500;-74
2021/12/09 03:50:10;;;;;;;27.85;12.15;;;5.30;99.90;;;;;;5063495;28;20420;-71
2021/12/09 03:52:36;;;;;;;30.08;12.20;;;5.30;99.90;;;;;;5048159;28;20415;-73
2021/12/09 03:55:02;;;;;;;34.30;12.00;;;5.20;99.90;;;;;;5050124;28;20408;-73
2021/12/09 03:57:28;;;;;;;28.17;11.73;;;5.20;99.90;;;;;;5048607;28;20456;-71
2021/12/09 03:59:54;;;;;;;27.33;12.20;;;5.20;99.90;;;;;;5067962;28;20410;-71
2021/12/09 04:02:20;;;;;;;29.27;11.93;;;5.20;99.90;;;;;;5063624;28;20875;-71
2021/12/09 04:04:46;;;;;;;30.77;11.48;;;5.20;99.90;;;;;;5068983;28;20512;-72
2021/12/09 04:07:12;;;;;;;31.70;12.97;;;5.20;99.90;;;;;;5061562;28;20560;-72
2021/12/09 04:09:38;;;;;;;28.77;11.83;;;5.10;99.90;;;;;;5033695;28;20443;-72
2021/12/09 04:12:04;;;;;;;25.25;11.45;;;5.10;99.90;;;;;;5060148;28;20842;-72
2021/12/09 04:14:30;;;;;;;25.75;12.15;;;5.10;99.90;;;;;;5066810;28;20395;-71
2021/12/09 04:16:56;;;;;;;27.55;12.38;;;5.00;99.90;;;;;;5042661;28;20478;-71
2021/12/09 04:19:22;;;;;;;28.43;12.30;;;5.10;99.90;;;;;;5065146;28;20913;-73
2021/12/09 04:21:48;;;;;;;28.30;12.10;;;5.10;99.90;;;;;;5056355;28;20429;-71
2021/12/09 04:24:15;;;;;;;27.90;12.23;;;5.10;99.90;;;;;;5066740;28;20407;-72
2021/12/09 04:26:46;;;;;;;32.95;12.35;;;5.10;99.90;;;;;;5065696;28;20500;-71
2021/12/09 04:29:13;;;;;;;29.25;12.68;;;5.10;99.90;;;;;;5067235;28;20442;-71
2021/12/09 04:31:39;;;;;;;25.23;12.10;;;5.10;99.90;;;;;;5065315;28;20430;-72
2021/12/09 04:34:05;;;;;;;29.17;11.82;;;5.10;99.90;;;;;;5067986;28;20416;-72
2021/12/09 04:36:32;;;;;;;28.02;11.27;;;5.10;99.90;;;;;;5062304;28;20428;-71
2021/12/09 04:38:57;;;;;;;31.27;11.88;;;5.10;99.90;;;;;;5049604;28;20426;-72
2021/12/09 04:41:23;;;;;;;33.83;12.73;;;5.10;99.90;;;;;;5069025;28;20423;-74
2021/12/09 04:43:49;;;;;;;25.77;12.20;;;5.00;99.90;;;;;;5068809;28;20482;-71
2021/12/09 04:46:16;;;;;;;34.13;12.23;;;5.00;99.90;;;;;;5067287;28;20427;-73
2021/12/09 04:48:42;;;;;;;30.42;12.00;;;5.00;99.90;;;;;;5075378;28;20390;-72
2021/12/09 04:51:08;;;;;;;34.23;12.07;;;5.00;99.90;;;;;;5047856;28;20760;-71
2021/12/09 04:53:34;;;;;;;33.50;12.20;;;4.90;99.90;;;;;;5067873;28;20418;-71
2021/12/09 04:55:59;;;;;;;28.30;11.70;;;4.90;99.90;;;;;;5050769;28;20411;-72
2021/12/09 04:58:27;;;;;;;28.42;11.43;;;4.90;99.90;;;;;;5069222;28;20483;-74
2021/12/09 05:00:56;;;;;;;28.45;11.60;;;4.90;99.90;;;;;;5066696;28;20462;-73
2021/12/09 05:03:22;;;;;;;30.52;12.05;;;4.90;99.90;;;;;;5070447;28;20927;-74
2021/12/09 05:05:51;;;;;;;29.40;12.50;;;4.90;99.90;;;;;;5050190;28;20880;-72
2021/12/09 05:08:18;;;;;;;34.28;12.85;;;4.90;99.90;;;;;;5068778;28;20416;-73
2021/12/09 05:13:27;;;;;;;33.37;12.27;;;4.90;99.90;;;;;;5066979;28;20399;-73
2021/12/09 05:15:54;;;;;;;35.38;12.68;;;4.90;99.90;;;;;;5066997;28;20737;-74
2021/12/09 05:18:21;;;;;;;29.70;12.20;;;4.80;99.90;;;;;;5049337;28;20498;-72
2021/12/09 05:20:47;;;;;;;31.15;12.15;;;4.80;99.90;;;;;;5065342;28;20876;-72
2021/12/09 05:23:14;;;;;;;31.85;11.75;;;4.80;99.90;;;;;;5067208;28;20464;-71
2021/12/09 05:25:39;;;;;;;34.72;12.38;;;4.80;99.90;;;;;;5066560;28;20533;-72
2021/12/09 05:28:07;;;;;;;26.17;9.90;;;4.80;99.90;;;;;;5070645;28;20277;-73
2021/12/09 05:32:07;;;;;;;31.20;9.05;;;4.50;99.90;;;;;;5072597;28;20194;-72
2021/12/09 05:33:26;;;;;;;33.13;9.10;;;4.20;99.90;;;;;;5069384;28;20199;-73
2021/12/09 05:35:51;;;;;;;32.15;11.80;;;4.00;99.90;;;;;;5050514;28;20412;-72
2021/12/09 05:38:17;;;;;;;29.10;9.95;;;4.10;99.90;;;;;;5068655;28;20186;-72
2021/12/09 05:40:43;;;;;;;36.35;9.55;;;4.00;99.90;;;;;;5058782;28;20229;-72
2021/12/09 05:43:08;;;;;;;35.33;11.98;;;3.90;99.90;;;;;;5066006;28;20410;-72
2021/12/09 05:45:34;;;;;;;31.63;11.70;;;4.00;99.90;;;;;;5065570;28;20411;-72
2021/12/09 05:48:00;;;;;;;35.45;11.75;;;4.30;99.90;;;;;;5067528;28;20492;-72
2021/12/09 05:50:25;;;;;;;32.60;12.27;;;4.40;99.90;;;;;;5064083;28;20754;-73
2021/12/09 05:52:51;;;;;;;35.67;12.25;;;4.50;99.90;;;;;;5065313;28;20430;-72
2021/12/09 05:55:17;;;;;;;30.00;11.23;;;4.50;99.90;;;;;;5074308;28;20419;-73
2021/12/09 05:57:42;;;;;;;30.80;11.75;;;4.60;99.90;;;;;;5068912;28;20908;-73
2021/12/09 06:00:09;;;;;;;31.97;11.40;;;4.60;99.90;;;;;;5071805;28;20400;-73
2021/12/09 06:02:39;;;;;;;30.80;11.77;;;4.60;99.90;;;;;;5076049;28;20779;-72
2021/12/09 06:05:05;;;;;;;32.40;11.30;;;4.70;99.90;;;;;;5065226;28;20410;-72
2021/12/09 06:07:31;;;;;;;32.37;10.90;;;4.70;99.90;;;;;;5054810;28;20423;-74
2021/12/09 06:09:58;;;;;;;31.40;11.27;;;4.70;99.90;;;;;;5070139;28;20490;-73
2021/12/09 06:12:24;;;;;;;32.10;10.60;;;4.70;99.90;;;;;;5067648;28;20411;-74
2021/12/09 06:14:49;;;;;;;33.45;11.13;;;4.70;99.90;;;;;;5068939;28;20407;-72
2021/12/09 06:17:15;;;;;;;30.70;10.67;;;4.70;99.90;;;;;;5067126;28;20434;-72
2021/12/09 06:19:41;;;;;;;29.92;10.23;;;4.70;99.90;;;;;;5076168;28;20433;-73
2021/12/09 06:22:06;;;;;;;27.05;10.10;;;4.70;99.90;;;;;;5073727;28;20649;-71
2021/12/09 06:24:32;;;;;;;34.80;10.38;;;4.70;99.90;;;;;;5070019;28;20410;-72
2021/12/09 06:26:59;;;;;;;33.50;10.40;;;4.70;99.90;;;;;;5071404;28;20419;-71
2021/12/09 06:29:25;;;;;;;37.88;10.23;;;4.70;99.90;;;;;;5067042;28;20490;-71
2021/12/09 06:31:50;;;;;;;31.90;9.73;;;4.70;99.90;;;;;;5067131;28;20400;-72
2021/12/09 06:34:16;;;;;;;30.63;10.15;;;4.70;99.90;;;;;;5066108;28;20745;-73
2021/12/09 06:36:42;;;;;;;28.30;9.75;;;4.80;99.90;;;;;;5066305;28;20457;-73
2021/12/09 06:39:09;;;;;;;32.43;9.47;;;4.80;99.90;;;;;;5073394;28;20411;-72
2021/12/09 06:41:35;;;;;;;33.47;9.27;;;4.90;99.90;;;;;;5065556;28;20420;-73
2021/12/09 06:44:02;;;;;;;31.58;9.30;;;4.90;99.90;;;;;;5078849;28;20494;-72
2021/12/09 06:46:27;;;;;;;32.33;9.43;;;5.00;99.90;;;;;;5067118;28;20431;-73
2021/12/09 06:48:53;;;;;;;29.20;9.38;;;5.00;99.90;;;;;;5066331;28;20403;-73
2021/12/09 06:51:19;;;;;;;31.20;9.32;;;5.00;99.90;;;;;;5066837;28;20403;-72
2021/12/09 06:53:45;;;;;;;31.80;8.87;;;5.00;99.90;;;;;;5076575;28;20399;-72
2021/12/09 06:56:10;;;;;;;30.80;9.13;;;5.10;99.90;;;;;;5070498;28;20502;-71
2021/12/09 06:58:36;;;;;;;35.30;9.77;;;5.10;99.90;;;;;;5067624;28;20791;-72
2021/12/09 07:01:04;;;;;;;30.45;9.23;;;5.20;99.90;;;;;;5072490;28;20883;-72
2021/12/09 07:03:30;;;;;;;27.45;9.00;;;5.20;99.90;;;;;;5078407;28;20433;-72
2021/12/09 07:05:57;;;;;;;30.97;8.70;;;5.20;99.90;;;;;;5077699;28;20972;-72
2021/12/09 07:08:23;;;;;;;33.78;9.07;;;5.20;99.90;;;;;;5063461;28;20832;-72
2021/12/09 07:10:50;;;;;;;35.23;9.00;;;5.30;99.90;;;;;;5070149;28;20433;-72
2021/12/09 07:13:15;;;;;;;35.47;10.32;;;5.30;99.90;;;;;;5075659;28;20414;-73
2021/12/09 07:15:41;;;;;;;30.27;8.83;;;5.30;99.90;;;;;;5064529;28;20435;-71
2021/12/09 07:18:07;;;;;;;32.25;9.02;;;5.30;99.90;;;;;;5065098;28;20931;-73
2021/12/09 07:20:33;;;;;;;31.10;10.10;;;5.30;99.90;;;;;;5069068;28;20430;-72
2021/12/09 07:22:59;;;;;;;29.02;9.40;;;5.40;99.90;;;;;;5064372;28;20506;-72
2021/12/09 07:25:27;;;;;;;28.30;9.63;;;5.40;99.90;;;;;;5079165;28;20447;-73
2021/12/09 07:27:53;;;;;;;32.45;9.93;;;5.40;99.90;;;;;;5066386;28;20414;-73
2021/12/09 07:30:21;;;;;;;32.00;9.63;;;5.40;99.90;;;;;;5069819;28;20420;-72
2021/12/09 07:32:48;;;;;;;33.00;9.07;;;5.40;99.90;;;;;;5064049;28;20407;-72
2021/12/09 07:35:15;;;;;;;31.17;9.13;;;5.40;99.90;;;;;;5075424;28;20404;-72
2021/12/09 07:37:42;;;;;;;32.88;9.57;;;5.40;99.90;;;;;;5069063;28;20422;-72
2021/12/09 07:40:12;;;;;;;31.27;9.20;;;5.40;99.90;;;;;;5074219;28;20438;-72
2021/12/09 07:42:38;;;;;;;26.98;8.90;;;5.40;99.90;;;;;;5066652;28;20788;-71
2021/12/09 07:45:06;;;;;;;30.88;9.50;;;5.40;99.90;;;;;;5064670;28;20412;-72
2021/12/09 07:47:32;;;;;;;32.15;9.60;;;5.40;99.90;;;;;;5073340;28;20502;-72
2021/12/09 07:49:58;;;;;;;34.97;9.73;;;5.30;99.90;;;;;;5065953;28;20400;-72
2021/12/09 07:52:24;;;;;;;33.97;9.37;;;5.30;99.90;;;;;;5076945;28;20408;-73
2021/12/09 07:54:50;;;;;;;32.30;10.02;;;5.30;99.90;;;;;;5069853;28;20448;-73
2021/12/09 07:57:15;;;;;;;30.27;10.00;;;5.30;99.90;;;;;;5071909;28;20415;-72
2021/12/09 07:59:41;;;;;;;30.08;10.10;;;5.40;99.90;;;;;;5074426;28;20397;-72
2021/12/09 08:02:07;;;;;;;34.20;10.23;;;5.40;99.90;;;;;;5076859;28;20436;-72
2021/12/09 08:04:33;;;;;;;29.40;10.05;;;5.40;99.90;;;;;;5070261;28;20403;-73
2021/12/09 08:06:59;;;;;;;27.67;10.00;;;5.50;99.90;;;;;;5074581;28;20415;-74
2021/12/09 08:09:27;;;;;;;32.53;10.23;;;5.50;99.90;;;;;;5066569;28;20461;-73
2021/12/09 08:11:52;;;;;;;29.27;10.60;;;5.50;99.90;;;;;;5070022;28;20403;-73
2021/12/09 08:14:19;;;;;;;32.13;10.65;;;5.50;99.90;;;;;;5076221;28;20403;-70
2021/12/09 08:16:45;;;;;;;31.63;10.70;;;5.50;99.90;;;;;;5070003;28;20490;-73
2021/12/09 08:19:13;;;;;;;32.03;10.68;;;5.50;99.90;;;;;;5068585;28;20568;-71
2021/12/09 08:21:40;;;;;;;33.65;10.77;;;5.50;99.90;;;;;;5066936;28;21015;-71
2021/12/09 08:24:08;;;;;;;32.05;11.02;;;5.50;99.90;;;;;;5101567;28;20435;-72
2021/12/09 08:26:35;;;;;;;34.72;11.10;;;5.50;99.90;;;;;;5073282;28;20448;-72
2021/12/09 08:29:03;;;;;;;32.23;11.30;;;5.50;99.90;;;;;;5074333;28;20912;-76
2021/12/09 08:31:33;;;;;;;33.65;11.82;;;5.50;99.90;;;;;;5072371;28;20400;-71
2021/12/09 08:33:59;;;;;;;34.88;12.32;;;5.50;99.90;;;;;;5069567;28;20414;-72
2021/12/09 08:36:25;;;;;;;37.67;12.80;;;5.60;99.90;;;;;;5075409;28;20419;-72
2021/12/09 08:38:50;;;;;;;33.42;12.90;;;5.60;99.90;;;;;;5068349;28;20490;-70
2021/12/09 08:41:18;;;;;;;35.13;13.00;;;5.60;99.90;;;;;;5070423;28;20991;-72
2021/12/09 08:43:45;;;;;;;32.55;13.68;;;5.70;99.90;;;;;;5070815;28;20433;-71
2021/12/09 08:46:11;;;;;;;32.25;13.45;;;5.70;99.90;;;;;;5081856;28;20420;-73
2021/12/09 08:48:37;;;;;;;29.63;13.35;;;5.80;99.90;;;;;;5071772;28;20513;-73
2021/12/09 08:51:03;;;;;;;37.05;13.93;;;5.80;99.90;;;;;;5073138;28;20509;-70
2021/12/09 08:53:29;;;;;;;29.45;13.77;;;5.80;99.90;;;;;;5066900;28;20422;-72
2021/12/09 08:55:55;;;;;;;38.22;14.55;;;5.90;99.90;;;;;;5077356;28;21942;-72
2021/12/09 08:58:21;;;;;;;32.67;13.93;;;5.90;99.90;;;;;;5069849;28;21191;-70
2021/12/09 09:00:51;;;;;;;34.67;13.88;;;6.00;99.90;;;;;;5067788;28;20419;-70
2021/12/09 09:03:16;;;;;;;34.70;13.88;;;6.10;99.90;;;;;;5065351;28;20728;-73
2021/12/09 09:05:42;;;;;;;33.27;13.83;;;6.20;99.90;;;;;;5069387;28;20415;-72
2021/12/09 09:08:08;;;;;;;31.17;13.75;;;6.30;99.90;;;;;;5062532;28;20449;-71
2021/12/09 09:10:36;;;;;;;33.43;14.40;;;6.50;99.90;;;;;;5066790;28;20871;-71
2021/12/09 09:13:03;;;;;;;33.37;13.77;;;6.60;99.90;;;;;;5068534;28;20418;-72
2021/12/09 09:15:31;;;;;;;30.40;13.27;;;6.80;99.90;;;;;;5067813;28;20425;-72
2021/12/09 09:17:57;;;;;;;26.30;12.60;;;7.00;99.90;;;;;;5066370;28;20444;-71
2021/12/09 09:20:25;;;;;;;26.85;12.57;;;7.20;99.90;;;;;;5066862;28;20572;-73
2021/12/09 09:22:51;;;;;;;30.43;12.10;;;7.30;99.90;;;;;;5066877;28;20425;-74
2021/12/09 09:25:22;;;;;;;32.13;14.02;;;7.40;99.90;;;;;;5075909;28;20928;-73
2021/12/09 09:27:49;;;;;;;30.55;12.90;;;7.50;99.90;;;;;;5063377;28;20432;-75
2021/12/09 09:30:18;;;;;;;25.98;12.35;;;7.60;99.90;;;;;;5074754;28;20506;-72
2021/12/09 09:32:45;;;;;;;30.58;12.05;;;7.60;99.90;;;;;;5067108;28;20427;-75
2021/12/09 09:35:11;;;;;;;29.73;12.20;;;7.60;99.90;;;;;;5068029;28;20411;-72
2021/12/09 09:37:38;;;;;;;31.70;12.52;;;7.50;99.90;;;;;;5069196;28;20964;-72
2021/12/09 09:40:10;;;;;;;32.97;12.80;;;7.40;99.90;;;;;;5074223;28;20423;-71
2021/12/09 09:45:06;;;;;;;34.90;13.97;;;7.20;99.90;;;;;;5069908;28;20458;-70
2021/12/09 09:47:33;;;;;;;31.67;13.63;;;7.00;99.90;;;;;;5065226;28;20426;-72
2021/12/09 09:49:59;;;;;;;31.13;14.35;;;7.00;99.90;;;;;;5050383;28;20655;-71
2021/12/09 09:52:25;;;;;;;32.97;14.15;;;6.90;99.90;;;;;;5066126;28;20424;-72
2021/12/09 09:54:54;;;;;;;37.42;15.77;;;6.90;99.90;;;;;;5068000;28;20412;-72
2021/12/09 09:57:20;;;;;;;31.90;15.05;;;6.90;99.90;;;;;;5072536;28;20418;-72
2021/12/09 09:59:46;;;;;;;39.38;15.65;;;6.90;99.90;;;;;;5068104;28;20411;-71
2021/12/09 10:02:13;;;;;;;40.67;15.40;;;6.90;99.90;;;;;;5072753;28;20423;-73
2021/12/09 10:07:09;;;;;;;34.58;16.05;;;6.90;99.90;;;;;;5066103;28;20415;-72
2021/12/09 10:09:35;;;;;;;42.17;16.65;;;6.90;99.90;;;;;;5067174;28;20737;-70
2021/12/09 10:12:01;;;;;;;38.03;17.13;;;6.90;99.90;;;;;;5066203;28;20413;-72
2021/12/09 10:14:33;;;;;;;36.22;16.88;;;6.90;99.90;;;;;;5066671;28;20495;-72
2021/12/09 10:17:07;;;;;;;39.83;17.58;;;6.90;99.90;;;;;;5065714;28;20419;-71
2021/12/09 10:19:46;;;;;;;36.42;16.65;;;6.90;99.90;;;;;;5031568;28;20983;-70
2021/12/09 10:22:17;;;;;;;35.77;16.67;;;7.00;99.90;;;;;;5063730;28;20420;-70
2021/12/09 10:24:45;;;;;;;32.33;16.20;;;6.90;99.90;;;;;;5070257;28;20900;-73
2021/12/09 10:27:28;;;;;;;36.97;15.57;;;7.00;99.90;;;;;;5064369;28;20426;-71
2021/12/09 10:30:00;;;;;;;33.50;15.30;;;7.00;99.90;;;;;;5065597;28;20407;-70
2021/12/09 10:32:32;;;;;;;32.85;15.35;;;7.00;99.90;;;;;;5046102;28;20411;-71
2021/12/09 10:35:15;;;;;;;37.07;15.80;;;7.00;99.90;;;;;;5065616;28;20540;-71
2021/12/09 10:37:42;;;;;;;36.10;15.80;;;7.10;99.90;;;;;;5046595;28;20991;-72
2021/12/09 10:40:12;;;;;;;33.70;14.80;;;7.10;99.90;;;;;;5066908;28;20455;-71
2021/12/09 10:42:47;;;;;;;31.83;14.67;;;7.10;99.90;;;;;;5057502;28;20510;-71
2021/12/09 10:45:20;;;;;;;32.67;15.40;;;7.20;99.90;;;;;;5059738;28;20415;-72
2021/12/09 10:47:54;;;;;;;35.28;15.48;;;7.20;99.90;;;;;;5047519;28;20419;-72
2021/12/09 10:53:17;;;;;;;37.97;17.42;;;7.20;99.90;;;;;;5064761;28;20426;-73
2021/12/09 10:55:43;;;;;;;36.63;17.88;;;7.20;99.90;;;;;;5058128;28;20734;-75
2021/12/09 10:58:13;;;;;;;36.08;18.00;;;7.30;99.90;;;;;;5028585;28;20922;-71
2021/12/09 11:00:54;;;;;;;37.60;18.02;;;7.30;99.90;;;;;;5061264;28;20458;-73
2021/12/09 11:03:37;;;;;;;34.70;19.35;;;7.30;99.90;;;;;;5042834;28;20491;-73
2021/12/09 11:06:29;;;;;;;37.20;18.67;;;7.40;99.90;;;;;;5026165;28;20419;-72
2021/12/09 11:08:57;;;;;;;36.20;19.23;;;7.50;99.90;;;;;;5057537;28;21081;-73
2021/12/09 11:11:29;;;;;;;33.53;19.45;;;7.60;99.90;;;;;;5042509;28;20423;-71
2021/12/09 11:14:03;;;;;;;36.33;19.52;;;7.60;99.90;;;;;;5063869;28;20411;-71
2021/12/09 11:16:32;;;;;;;35.00;19.50;;;7.60;99.90;;;;;;5059345;28;20773;-72
2021/12/09 11:19:12;;;;;;;38.10;19.35;;;7.70;99.90;;;;;;5064913;28;20415;-70
2021/12/09 11:21:43;;;;;;;40.50;20.13;;;7.70;99.90;;;;;;5053555;28;20433;-74
2021/12/09 11:24:14;;;;;;;38.88;21.27;;;7.60;99.90;;;;;;5063893;28;20469;-74
2021/12/09 11:26:58;;;;;;;42.97;21.15;;;7.60;99.90;;;;;;5048464;28;20961;-71
2021/12/09 11:29:28;;;;;;;36.70;20.30;;;7.70;99.90;;;;;;5061753;28;20419;-73
2021/12/09 11:31:59;;;;;;;36.88;20.77;;;7.70;99.90;;;;;;5064253;28;20911;-73
2021/12/09 11:34:49;;;;;;;36.67;20.25;;;7.70;99.90;;;;;;5049179;28;20788;-73
2021/12/09 11:40:21;;;;;;;40.17;21.00;;;7.70;99.90;;;;;;5065559;28;20487;-72
2021/12/09 11:42:55;;;;;;;42.53;21.75;;;7.70;99.90;;;;;;5070478;28;20999;-72
2021/12/09 11:45:25;;;;;;;39.13;21.50;;;7.70;99.90;;;;;;5073407;28;20925;-71
2021/12/09 11:47:52;;;;;;;39.60;21.27;;;7.70;99.90;;;;;;5075122;28;20419;-75
2021/12/09 11:50:27;;;;;;;37.97;22.10;;;7.70;99.90;;;;;;5052209;28;20425;-71
2021/12/09 11:52:54;;;;;;;38.92;22.77;;;7.70;99.90;;;;;;5066707;28;20439;-70
2021/12/09 11:55:28;;;;;;;44.90;23.33;;;7.70;99.90;;;;;;5075603;28;20490;-72
2021/12/09 11:58:02;;;;;;;43.85;23.88;;;7.70;99.90;;;;;;5068875;28;20403;-72
2021/12/09 12:12:19;;;;;;;44.97;27.08;;;7.70;99.90;;;;;;5084212;28;21914;-72
2021/12/09 12:14:48;;;;;;;54.05;28.23;;;7.70;99.90;;;;;;5050409;28;20439;-73
2021/12/09 12:17:23;;;;;;;48.80;27.77;;;7.70;99.90;;;;;;5051444;28;20411;-71
2021/12/09 12:25:48;;;;;;;52.00;27.90;;;7.60;99.90;;;;;;5070974;28;20944;-73
2021/12/09 12:33:59;;;;;;;46.83;27.48;;;7.60;99.90;;;;;;5069462;28;20411;-71
2021/12/09 12:42:34;;;;;;;42.20;26.00;;;7.70;99.90;;;;;;5044276;28;20826;-73
2021/12/09 12:45:22;;;;;;;45.53;27.27;;;7.70;99.90;;;;;;5048271;28;20417;-73
2021/12/09 12:48:37;;;;;;;49.75;27.83;;;7.70;99.90;;;;;;5049369;28;20421;-71
2021/12/09 12:50:36;;;;;;;45.90;27.97;;;7.70;99.90;;;;;;5037482;28;20425;-72
2021/12/09 12:53:50;;;;;;;50.05;29.05;;;7.70;99.90;;;;;;5047415;28;20782;-71
2021/12/09 12:56:28;;;;;;;44.97;28.55;;;7.60;99.90;;;;;;5034085;28;20422;-72
2021/12/09 12:59:13;;;;;;;50.13;30.30;;;7.60;99.90;;;;;;5047354;28;20424;-71
2021/12/09 13:01:46;;;;;;;51.07;29.77;;;7.70;99.90;;;;;;5046855;28;20424;-71
2021/12/09 13:04:38;;;;;;;51.40;30.50;;;7.60;99.90;;;;;;5048323;28;20425;-72
2021/12/09 13:08:20;;;;;;;49.67;29.65;;;7.70;99.90;;;;;;5047281;28;20460;-73
2021/12/09 13:19:40;;;;;;;49.20;28.42;;;7.80;99.90;;;;;;5048595;28;20413;-71
2021/12/09 13:21:59;;;;;;;42.72;26.58;;;7.90;99.90;;;;;;5043456;28;20428;-72
2021/12/09 13:24:36;;;;;;;45.80;26.30;;;7.90;99.90;;;;;;5047585;28;20918;-71
2021/12/09 13:27:03;;;;;;;45.08;26.30;;;7.90;99.90;;;;;;5047486;28;20910;-72
2021/12/09 13:29:50;;;;;;;40.10;25.23;;;7.90;99.90;;;;;;5048005;28;20408;-73
2021/12/09 13:33:04;;;;;;;39.75;26.42;;;7.90;99.90;;;;;;5048409;28;21051;-72
2021/12/09 13:45:53;;;;;;;40.20;25.33;;;7.80;99.90;;;;;;5055531;28;20420;-69
2021/12/09 13:46:35;;;;;;;40.00;25.60;;;7.80;99.90;;;;;;5067006;28;20420;-71